Time;durP1;ratioP1;P1;durP2;ratioP2;P2;SDS_P1;SDS_P2;PMS_P1;PMS_P2;Temp;Humidity;BMP_temperature;BMP_pressure;BME280_temperature;BME280_humidity;BME280_pressure;Samples;Min_cycle;Max_cycle;Signal;HPM_P1;HPM_P2
2021/08/28 00:01:12;;;;;;;1.60;1.50;;;;;;;22.80;85.65;97345.16;4993176;28;20235;-66
2021/08/28 00:03:38;;;;;;;1.57;1.47;;;;;;;22.80;85.67;97342.59;5003504;28;20229;-66
2021/08/28 00:06:05;;;;;;;1.70;1.60;;;;;;;22.81;85.30;97336.63;4993242;28;20673;-65
2021/08/28 00:08:31;;;;;;;1.40;1.30;;;;;;;22.80;85.56;97340.88;4992151;28;20241;-65
2021/08/28 00:10:58;;;;;;;1.27;1.20;;;;;;;22.80;85.54;97340.03;5001221;28;20629;-65
2021/08/28 00:13:25;;;;;;;2.10;1.50;;;;;;;22.80;85.24;97338.31;4992806;28;20254;-65
2021/08/28 00:15:51;;;;;;;1.53;1.43;;;;;;;22.81;85.33;97344.31;4994027;28;20254;-66
2021/08/28 00:18:18;;;;;;;1.37;1.30;;;;;;;22.81;85.52;97334.06;4992793;28;20234;-66
2021/08/28 00:20:45;;;;;;;1.40;1.30;;;;;;;22.80;85.40;97343.44;5004017;28;20253;-66
2021/08/28 00:23:11;;;;;;;1.50;1.40;;;;;;;22.81;85.81;97345.19;4992638;28;20269;-66
2021/08/28 00:25:38;;;;;;;1.33;1.23;;;;;;;22.81;85.51;97345.19;4993131;28;20237;-66
2021/08/28 00:28:04;;;;;;;1.30;1.30;;;;;;;22.81;85.48;97342.63;4993336;28;20714;-66
2021/08/28 00:30:31;;;;;;;1.50;1.40;;;;;;;22.81;85.55;97347.75;4992674;28;20583;-66
2021/08/28 00:33:10;;;;;;;1.13;1.13;;;;;;;22.80;85.41;97342.59;5002517;28;20253;-62
2021/08/28 00:35:37;;;;;;;1.40;1.30;;;;;;;22.78;85.43;97347.69;4988901;28;20230;-66
2021/08/28 00:38:04;;;;;;;1.30;1.20;;;;;;;22.77;85.87;97345.09;4992778;28;20290;-66
2021/08/28 00:40:31;;;;;;;1.20;1.20;;;;;;;22.75;85.59;97342.50;4992506;28;20235;-66
2021/08/28 00:42:57;;;;;;;1.60;1.30;;;;;;;22.74;85.78;97333.06;4994036;28;20269;-63
2021/08/28 00:45:25;;;;;;;1.33;1.23;;;;;;;22.74;85.82;97334.78;5001123;28;20207;-66
2021/08/28 00:47:56;;;;;;;1.63;1.50;;;;;;;22.32;85.82;97262.09;5016661;23;20235;-68
2021/08/28 00:50:26;;;;;;;1.43;1.33;;;;;;;22.63;85.93;97310.63;4982764;28;20199;-68
2021/08/28 00:52:53;;;;;;;1.30;1.30;;;;;;;22.75;85.84;97322.00;4978955;28;20753;-69
2021/08/28 00:55:21;;;;;;;1.40;1.30;;;;;;;22.75;85.76;97328.81;4970418;28;20200;-69
2021/08/28 00:57:48;;;;;;;3.00;1.50;;;;;;;22.67;85.87;97310.72;4988389;28;20310;-68
2021/08/28 01:00:15;;;;;;;1.60;1.50;;;;;;;22.77;85.82;97333.13;4963425;28;20266;-68
2021/08/28 01:02:42;;;;;;;1.67;1.57;;;;;;;22.73;85.76;97333.91;4975890;28;20289;-68
2021/08/28 01:05:20;;;;;;;1.67;1.57;;;;;;;22.70;85.62;97315.03;4982299;28;20269;-68
2021/08/28 01:08:10;;;;;;;1.40;1.30;;;;;;;22.79;85.64;97328.03;4981875;28;20762;-68
2021/08/28 01:10:39;;;;;;;1.50;1.40;;;;;;;22.77;85.51;97332.28;4978314;28;20235;-68
2021/08/28 01:13:08;;;;;;;1.57;1.47;;;;;;;22.79;85.54;97330.59;4950351;28;20238;-67
2021/08/28 01:15:37;;;;;;;1.40;1.30;;;;;;;22.68;85.70;97311.59;4972847;28;20241;-67
2021/08/28 01:18:04;;;;;;;1.77;1.50;;;;;;;22.66;85.52;97308.13;4962070;28;20250;-68
2021/08/28 01:20:43;;;;;;;1.40;1.30;;;;;;;22.78;85.48;97327.19;4972415;28;20230;-68
2021/08/28 01:23:09;;;;;;;1.50;1.40;;;;;;;22.79;85.51;97330.59;4978137;28;20590;-68
2021/08/28 01:25:36;;;;;;;1.50;1.40;;;;;;;22.58;85.56;97300.28;4982760;28;20223;-68
2021/08/28 01:28:06;;;;;;;1.33;1.23;;;;;;;22.71;85.41;97324.47;4967738;28;20251;-68
2021/08/28 01:30:33;;;;;;;1.20;1.20;;;;;;;22.79;85.49;97334.03;4966811;28;20753;-68
2021/08/28 01:33:01;;;;;;;1.50;1.40;;;;;;;22.77;85.53;97334.84;4986239;28;20294;-68
2021/08/28 01:35:28;;;;;;;1.70;1.60;;;;;;;22.76;85.33;97339.09;4957109;28;20262;-68
2021/08/28 01:37:55;;;;;;;1.60;1.50;;;;;;;22.67;85.46;97314.97;4985339;28;20257;-68
2021/08/28 01:40:22;;;;;;;1.50;1.40;;;;;;;22.64;85.47;97309.78;4982204;28;20577;-67
2021/08/28 01:42:49;;;;;;;1.60;1.50;;;;;;;22.78;85.40;97336.56;4981083;28;20282;-68
2021/08/28 01:45:17;;;;;;;1.50;1.40;;;;;;;22.76;85.50;97343.34;4986024;28;20206;-68
2021/08/28 01:47:44;;;;;;;1.50;1.40;;;;;;;22.74;85.56;97340.75;4968213;28;20269;-68
2021/08/28 01:50:10;;;;;;;1.27;1.20;;;;;;;22.59;85.69;97312.22;4973937;28;20238;-68
2021/08/28 01:52:37;;;;;;;1.60;1.50;;;;;;;22.71;85.70;97338.13;4982934;28;20649;-66
2021/08/28 01:55:04;;;;;;;1.50;1.40;;;;;;;22.54;85.76;97305.28;4991206;28;20237;-66
2021/08/28 01:57:31;;;;;;;1.60;1.50;;;;;;;22.56;85.87;97307.03;4983097;28;20231;-67
2021/08/28 01:59:57;;;;;;;1.40;1.30;;;;;;;22.73;85.92;97341.59;4974563;28;20653;-68
2021/08/28 02:02:24;;;;;;;1.60;1.50;;;;;;;22.64;85.86;97322.59;4986940;28;20245;-68
2021/08/28 02:04:51;;;;;;;1.20;1.20;;;;;;;22.72;85.61;97326.19;4984704;28;20673;-67
2021/08/28 02:07:20;;;;;;;1.33;1.27;;;;;;;22.76;85.78;97338.22;4981193;28;20783;-68
2021/08/28 02:09:57;;;;;;;1.67;1.57;;;;;;;22.57;85.77;97303.69;4987704;28;20258;-68
2021/08/28 02:12:32;;;;;;;1.27;1.27;;;;;;;22.58;85.71;97313.06;4968681;28;20268;-68
2021/08/28 02:15:01;;;;;;;1.80;1.70;;;;;;;22.76;85.63;97336.53;4981114;28;20641;-67
2021/08/28 02:17:28;;;;;;;1.50;1.40;;;;;;;22.78;85.60;97341.69;4984728;28;20678;-68
2021/08/28 02:20:01;;;;;;;1.63;1.53;;;;;;;22.77;85.59;97337.41;4986917;28;20233;-68
2021/08/28 02:22:29;;;;;;;1.33;1.23;;;;;;;22.74;85.64;97334.78;4969276;28;20234;-68
2021/08/28 02:25:00;;;;;;;1.30;1.30;;;;;;;22.78;85.57;97336.56;4970796;28;20278;-67
2021/08/28 02:27:32;;;;;;;1.40;1.30;;;;;;;22.70;85.59;97323.59;4985845;28;20255;-68
2021/08/28 02:30:08;;;;;;;1.47;1.37;;;;;;;22.75;85.59;97337.38;4972706;28;20231;-68
2021/08/28 02:32:34;;;;;;;1.17;1.17;;;;;;;22.64;85.82;97312.34;4971149;28;20700;-68
2021/08/28 02:35:02;;;;;;;1.60;1.50;;;;;;;22.75;85.62;97332.25;4964875;28;20626;-69
2021/08/28 02:37:32;;;;;;;1.40;1.30;;;;;;;22.72;85.52;97336.44;4955315;28;20242;-68
2021/08/28 02:40:00;;;;;;;1.60;1.50;;;;;;;22.79;85.46;97335.72;4967666;28;20543;-67
2021/08/28 02:42:26;;;;;;;1.50;1.40;;;;;;;22.62;85.50;97302.06;4971366;28;20680;-68
2021/08/28 02:44:54;;;;;;;1.67;1.57;;;;;;;22.73;85.72;97322.78;4965322;28;20800;-68
2021/08/28 02:47:21;;;;;;;1.60;1.50;;;;;;;22.47;85.58;97282.91;4982382;28;20229;-68
2021/08/28 02:49:48;;;;;;;1.40;1.30;;;;;;;22.56;85.33;97298.53;4967478;28;20253;-68
2021/08/28 02:52:14;;;;;;;1.73;1.63;;;;;;;22.65;85.58;97314.94;4972682;28;20223;-68
2021/08/28 02:54:41;;;;;;;1.50;1.40;;;;;;;22.73;85.43;97326.22;4971265;28;20238;-68
2021/08/28 02:57:08;;;;;;;1.63;1.30;;;;;;;22.43;85.32;97273.41;4968624;28;20223;-67
2021/08/28 02:59:34;;;;;;;1.60;1.50;;;;;;;22.63;85.51;97319.19;4987558;28;20225;-68
2021/08/28 03:02:02;;;;;;;1.40;1.30;;;;;;;22.63;85.81;97324.31;4983483;28;20302;-68
2021/08/28 03:04:29;;;;;;;1.57;1.47;;;;;;;22.73;85.99;97350.97;4983810;28;20210;-68
2021/08/28 03:06:56;;;;;;;2.00;1.40;;;;;;;22.72;85.86;97342.44;4968272;28;20245;-68
2021/08/28 03:09:22;;;;;;;1.60;1.50;;;;;;;22.64;85.81;97327.69;4963504;28;20510;-68
2021/08/28 03:11:49;;;;;;;1.70;1.60;;;;;;;22.72;85.81;97345.00;4985170;28;20231;-68
2021/08/28 03:14:17;;;;;;;1.40;1.30;;;;;;;22.65;85.75;97325.19;4985957;28;20449;-68
2021/08/28 03:16:46;;;;;;;1.37;1.30;;;;;;;22.74;85.89;97330.50;4988150;28;21956;-68
2021/08/28 03:19:12;;;;;;;1.63;1.53;;;;;;;22.74;85.52;97335.63;4969805;28;20253;-68
2021/08/28 03:21:39;;;;;;;1.40;1.30;;;;;;;22.71;85.71;97330.44;4967430;28;20656;-68
2021/08/28 03:24:06;;;;;;;1.87;1.33;;;;;;;22.75;85.50;97333.94;4987258;28;20238;-68
2021/08/28 03:26:44;;;;;;;1.50;1.40;;;;;;;22.75;85.55;97332.25;4983325;28;20222;-68
2021/08/28 03:29:11;;;;;;;1.63;1.53;;;;;;;22.76;85.73;97330.53;4971891;28;20638;-68
2021/08/28 03:31:37;;;;;;;1.53;1.43;;;;;;;22.76;85.57;97330.53;4969544;28;20253;-68
2021/08/28 03:34:04;;;;;;;1.60;1.50;;;;;;;22.71;85.59;97325.31;4981507;28;20710;-68
2021/08/28 03:36:30;;;;;;;1.50;1.40;;;;;;;22.66;85.51;97313.25;4960537;28;20240;-68
2021/08/28 03:38:59;;;;;;;1.53;1.43;;;;;;;22.76;85.61;97322.84;4966412;28;20724;-68
2021/08/28 03:41:25;;;;;;;1.70;1.60;;;;;;;22.77;85.91;97327.16;4987437;28;20250;-68
2021/08/28 03:43:52;;;;;;;1.60;1.50;;;;;;;22.77;85.50;97322.88;4968330;28;20238;-68
2021/08/28 03:46:19;;;;;;;1.50;1.40;;;;;;;22.68;85.61;97309.88;4988370;28;20234;-68
2021/08/28 03:48:45;;;;;;;1.63;1.50;;;;;;;22.78;85.84;97323.75;4968835;28;20314;-68
2021/08/28 03:51:12;;;;;;;1.80;1.70;;;;;;;22.75;85.44;97319.44;4978076;28;20293;-68
2021/08/28 03:53:38;;;;;;;1.67;1.57;;;;;;;22.68;85.37;97314.16;4987352;28;20242;-68
2021/08/28 03:56:05;;;;;;;1.60;1.50;;;;;;;22.69;85.50;97310.75;4982675;28;20234;-68
2021/08/28 03:58:33;;;;;;;1.70;1.57;;;;;;;22.77;85.58;97324.59;4986715;28;20265;-68
2021/08/28 04:00:59;;;;;;;1.50;1.40;;;;;;;22.78;85.41;97327.19;4982562;28;20257;-68
2021/08/28 04:03:26;;;;;;;1.57;1.47;;;;;;;22.74;85.30;97324.53;4989158;28;20645;-68
2021/08/28 04:05:53;;;;;;;1.47;1.37;;;;;;;22.77;85.77;97337.41;4985724;28;20261;-68
2021/08/28 04:08:20;;;;;;;1.57;1.47;;;;;;;22.64;85.81;97313.22;4984244;28;20219;-68
2021/08/28 04:10:47;;;;;;;1.40;1.30;;;;;;;22.72;85.71;97334.75;4987613;28;20214;-68
2021/08/28 04:13:13;;;;;;;1.50;1.40;;;;;;;22.63;85.48;97318.31;4981393;28;20584;-68
2021/08/28 04:15:40;;;;;;;1.40;1.30;;;;;;;22.71;85.78;97333.00;4985634;28;20273;-68
2021/08/28 04:18:07;;;;;;;1.50;1.40;;;;;;;22.57;85.91;97306.25;4982696;28;20241;-68
2021/08/28 04:20:33;;;;;;;1.30;1.30;;;;;;;22.72;85.91;97331.31;4987659;28;20241;-69
2021/08/28 04:23:00;;;;;;;1.20;1.20;;;;;;;22.72;85.59;97329.63;4990997;28;20227;-67
2021/08/28 04:25:26;;;;;;;1.50;1.40;;;;;;;22.73;85.90;97336.47;4972106;28;20235;-68
2021/08/28 04:27:53;;;;;;;1.43;1.33;;;;;;;22.73;85.42;97335.59;4992335;28;20223;-67
2021/08/28 04:30:20;;;;;;;1.40;1.30;;;;;;;22.63;85.58;97318.31;4984625;28;20608;-68
2021/08/28 04:32:46;;;;;;;1.40;1.30;;;;;;;22.74;85.80;97340.75;4958247;28;20302;-68
2021/08/28 04:35:13;;;;;;;1.57;1.40;;;;;;;22.66;85.79;97323.50;4984149;28;20232;-68
2021/08/28 04:37:39;;;;;;;1.40;1.30;;;;;;;22.75;85.72;97336.50;4973865;28;20272;-67
2021/08/28 04:40:06;;;;;;;1.30;1.30;;;;;;;22.71;85.68;97337.28;4989566;28;20659;-68
2021/08/28 04:42:33;;;;;;;1.53;1.43;;;;;;;22.75;85.65;97349.31;4988943;28;20661;-68
2021/08/28 04:44:59;;;;;;;1.40;1.30;;;;;;;22.65;85.68;97339.69;4990621;28;20227;-67
2021/08/28 04:47:26;;;;;;;1.40;1.30;;;;;;;22.67;85.66;97344.00;4979321;28;20227;-67
2021/08/28 04:49:53;;;;;;;1.30;1.20;;;;;;;22.66;85.69;97341.41;4990795;28;20289;-68
2021/08/28 04:52:19;;;;;;;1.30;1.20;;;;;;;22.75;85.93;97354.44;4984991;28;20231;-68
2021/08/28 04:54:46;;;;;;;1.43;1.30;;;;;;;22.75;85.54;97354.44;4990584;28;20234;-68
2021/08/28 04:57:12;;;;;;;1.40;1.30;;;;;;;22.71;85.57;97356.06;4988038;28;20227;-67
2021/08/28 04:59:39;;;;;;;1.57;1.47;;;;;;;22.77;86.00;97360.47;4990614;28;20227;-68
2021/08/28 05:02:05;;;;;;;1.43;1.33;;;;;;;22.77;85.61;97360.47;4990835;28;20199;-67
2021/08/28 05:04:32;;;;;;;1.57;1.47;;;;;;;22.77;85.45;97360.47;4983809;28;20219;-68
2021/08/28 05:06:59;;;;;;;1.33;1.23;;;;;;;22.76;85.64;97359.59;4992026;28;20771;-68
2021/08/28 05:09:26;;;;;;;1.40;1.30;;;;;;;22.77;85.51;97360.47;4984866;28;20259;-68
2021/08/28 05:11:52;;;;;;;1.60;1.50;;;;;;;22.76;85.72;97354.47;4988100;28;20290;-68
2021/08/28 05:14:20;;;;;;;1.40;1.30;;;;;;;21.19;85.44;97088.03;4985974;28;20733;-68
2021/08/28 05:16:47;;;;;;;1.50;1.40;;;;;;;22.74;85.57;97355.28;4987192;28;20634;-68
2021/08/28 05:19:14;;;;;;;1.40;1.30;;;;;;;22.71;85.40;97358.59;4987380;28;20237;-68
2021/08/28 05:21:40;;;;;;;1.10;1.10;;;;;;;22.71;85.49;97350.94;4989986;28;20227;-67
2021/08/28 05:24:07;;;;;;;1.20;1.20;;;;;;;22.62;85.82;97343.03;4973505;28;20298;-68
2021/08/28 05:26:34;;;;;;;1.33;1.23;;;;;;;22.69;85.90;97365.41;4988868;28;20234;-68
2021/08/28 05:29:00;;;;;;;1.30;1.20;;;;;;;22.70;85.72;97359.44;4987212;28;20231;-68
2021/08/28 05:31:27;;;;;;;1.33;1.23;;;;;;;22.60;86.59;97343.84;4985393;28;20245;-66
2021/08/28 05:33:53;;;;;;;1.20;1.20;;;;;;;22.71;85.72;97363.72;4987778;28;20234;-68
2021/08/28 05:36:20;;;;;;;1.43;1.30;;;;;;;22.63;85.71;97354.16;4984360;28;20234;-68
2021/08/28 05:38:46;;;;;;;1.37;1.27;;;;;;;22.72;85.77;97368.06;4989006;28;20258;-68
2021/08/28 05:41:13;;;;;;;1.63;1.53;;;;;;;22.73;86.15;97372.34;4987767;28;20241;-67
2021/08/28 05:43:40;;;;;;;1.40;1.30;;;;;;;22.70;85.97;97358.56;4988962;28;20611;-68
2021/08/28 05:46:06;;;;;;;1.30;1.20;;;;;;;22.74;86.06;97370.66;4988728;28;20237;-68
2021/08/28 05:48:33;;;;;;;1.10;1.10;;;;;;;22.74;85.95;97376.63;4983048;28;20301;-68
2021/08/28 05:50:59;;;;;;;1.23;1.23;;;;;;;22.64;85.76;97364.44;4989349;28;20237;-68
2021/08/28 05:53:26;;;;;;;1.13;1.13;;;;;;;22.66;85.69;97362.78;4969252;28;20237;-68
2021/08/28 05:55:52;;;;;;;1.50;1.40;;;;;;;22.75;85.93;97377.50;4972153;28;20596;-69
2021/08/28 05:58:19;;;;;;;1.20;1.20;;;;;;;22.75;85.72;97388.63;4987127;28;20265;-68
2021/08/28 06:00:46;;;;;;;1.17;1.17;;;;;;;22.76;85.95;97381.78;4990113;28;20749;-69
2021/08/28 06:03:13;;;;;;;1.37;1.30;;;;;;;22.75;85.70;97378.38;4986987;28;20242;-68
2021/08/28 06:05:40;;;;;;;1.33;1.30;;;;;;;22.76;85.65;97389.47;4984763;28;20203;-68
2021/08/28 06:08:06;;;;;;;1.30;1.20;;;;;;;22.76;85.96;97387.78;4988456;28;20246;-68
2021/08/28 06:10:33;;;;;;;1.53;1.27;;;;;;;22.75;85.63;97383.50;4986035;28;20234;-67
2021/08/28 06:12:59;;;;;;;1.10;1.10;;;;;;;22.76;85.38;97392.03;4983580;28;20366;-69
2021/08/28 06:15:26;;;;;;;1.20;1.20;;;;;;;21.63;85.52;97189.66;4985684;28;20223;-68
2021/08/28 06:17:53;;;;;;;1.33;1.30;;;;;;;22.70;85.18;97376.50;4987634;28;20667;-68
2021/08/28 06:20:19;;;;;;;1.50;1.40;;;;;;;22.76;85.59;97384.34;4986535;28;20285;-67
2021/08/28 06:22:46;;;;;;;1.40;1.30;;;;;;;22.68;85.54;97378.19;4989168;28;20289;-68
2021/08/28 06:25:12;;;;;;;1.20;1.20;;;;;;;22.75;85.54;97393.75;4984854;28;20290;-67
2021/08/28 06:27:39;;;;;;;1.17;1.10;;;;;;;22.72;85.70;97385.09;4988707;28;20289;-67
2021/08/28 06:30:06;;;;;;;1.20;1.20;;;;;;;22.48;85.59;97349.53;4984316;28;20223;-68
2021/08/28 06:32:32;;;;;;;1.30;1.27;;;;;;;22.61;86.13;97368.63;4986429;28;20231;-67
2021/08/28 06:34:59;;;;;;;1.23;1.23;;;;;;;22.70;85.89;97389.31;4981709;28;20285;-67
2021/08/28 06:37:25;;;;;;;1.10;1.10;;;;;;;22.70;86.00;97390.19;4986686;28;20728;-67
2021/08/28 06:39:52;;;;;;;1.40;1.30;;;;;;;22.60;86.00;97365.22;4988756;28;20290;-67
2021/08/28 06:42:18;;;;;;;1.30;1.20;;;;;;;22.71;85.95;97383.38;4984901;28;20230;-68
2021/08/28 06:44:45;;;;;;;1.20;1.20;;;;;;;22.71;85.55;97383.38;4988439;28;20643;-67
2021/08/28 06:47:12;;;;;;;1.23;1.20;;;;;;;22.71;85.96;97375.69;5024572;23;20250;-67
2021/08/28 06:49:39;;;;;;;1.33;1.23;;;;;;;22.72;85.78;97372.28;4971166;28;20239;-67
2021/08/28 06:52:05;;;;;;;1.30;1.30;;;;;;;22.72;85.81;97373.19;4973343;28;20235;-69
2021/08/28 06:54:32;;;;;;;1.13;1.13;;;;;;;22.67;86.19;97364.50;4974769;28;20627;-69
2021/08/28 06:56:59;;;;;;;1.20;1.20;;;;;;;22.73;85.46;97376.56;4975408;28;20720;-67
2021/08/28 06:59:25;;;;;;;1.20;1.20;;;;;;;22.73;85.68;97392.81;4967049;28;20309;-69
2021/08/28 07:01:52;;;;;;;1.40;1.30;;;;;;;22.74;85.97;97388.59;4969785;28;20659;-67
2021/08/28 07:04:19;;;;;;;1.13;1.13;;;;;;;22.75;85.67;97392.88;4963140;28;20228;-67
2021/08/28 07:06:46;;;;;;;1.10;1.10;;;;;;;22.74;85.69;97389.41;4968884;28;20290;-70
2021/08/28 07:09:13;;;;;;;1.40;1.17;;;;;;;22.75;85.88;97387.75;4964927;28;20756;-67
2021/08/28 07:11:39;;;;;;;1.47;1.37;;;;;;;22.75;86.13;97380.06;4964571;28;20694;-66
2021/08/28 07:14:06;;;;;;;1.13;1.13;;;;;;;22.75;85.71;97385.19;4964834;28;20235;-68
2021/08/28 07:16:33;;;;;;;1.07;1.07;;;;;;;22.75;85.90;97387.75;4966682;28;20778;-69
2021/08/28 07:18:59;;;;;;;1.53;1.10;;;;;;;22.75;85.63;97390.28;4965768;28;20423;-66
2021/08/28 07:21:26;;;;;;;1.20;1.20;;;;;;;22.75;85.72;97387.75;4969305;28;20246;-68
2021/08/28 07:23:52;;;;;;;1.30;1.30;;;;;;;22.76;85.68;97389.47;4966025;28;20681;-67
2021/08/28 07:26:19;;;;;;;1.50;1.40;;;;;;;22.76;85.63;97389.47;4970663;28;20239;-68
2021/08/28 07:28:46;;;;;;;1.10;1.10;;;;;;;22.75;85.65;97380.06;4965089;28;20299;-67
2021/08/28 07:31:12;;;;;;;1.30;1.20;;;;;;;22.75;85.35;97382.63;4964978;28;20211;-67
2021/08/28 07:33:39;;;;;;;1.90;1.30;;;;;;;22.75;85.80;97378.38;4966840;28;20206;-67
2021/08/28 07:36:06;;;;;;;1.30;1.20;;;;;;;22.74;85.79;97381.72;4962957;28;20753;-69
2021/08/28 07:38:32;;;;;;;1.40;1.30;;;;;;;22.73;85.59;97381.69;4967952;28;20307;-67
2021/08/28 07:40:59;;;;;;;1.13;1.13;;;;;;;22.72;85.68;97375.75;4964437;28;20284;-67
2021/08/28 07:43:25;;;;;;;2.53;1.20;;;;;;;22.71;85.71;97380.81;4969336;28;20626;-68
2021/08/28 07:45:52;;;;;;;2.83;1.20;;;;;;;22.70;85.75;97381.63;4966582;28;20239;-68
2021/08/28 07:48:18;;;;;;;2.10;1.20;;;;;;;22.69;86.08;97372.22;4964349;28;20226;-67
2021/08/28 07:50:45;;;;;;;1.27;1.17;;;;;;;22.69;85.83;97382.47;4966644;28;20728;-66
2021/08/28 07:53:12;;;;;;;1.20;1.20;;;;;;;22.70;86.13;97379.06;4965202;28;20244;-68
2021/08/28 07:55:38;;;;;;;1.10;1.10;;;;;;;22.70;85.87;97386.75;4967910;28;20235;-67
2021/08/28 07:58:05;;;;;;;1.17;1.17;;;;;;;22.70;85.84;97379.94;4965369;28;20322;-67
2021/08/28 08:00:31;;;;;;;2.00;1.10;;;;;;;22.71;85.84;97386.78;4968993;28;20239;-66
2021/08/28 08:02:58;;;;;;;1.30;1.20;;;;;;;22.72;85.84;97382.53;4965576;28;20677;-68
2021/08/28 08:05:25;;;;;;;1.20;1.20;;;;;;;22.72;85.90;97387.66;4964830;28;20673;-66
2021/08/28 08:07:52;;;;;;;1.27;1.20;;;;;;;22.72;85.68;97385.97;4965840;28;20256;-68
2021/08/28 08:10:18;;;;;;;1.20;1.20;;;;;;;22.72;85.89;97391.09;4965191;28;20573;-66
2021/08/28 08:12:45;;;;;;;1.20;1.20;;;;;;;22.72;85.69;97391.09;4965306;28;20239;-68
2021/08/28 08:15:11;;;;;;;1.40;1.30;;;;;;;22.73;85.81;97392.81;4963756;28;20291;-67
2021/08/28 08:17:38;;;;;;;1.40;1.30;;;;;;;22.74;85.79;97396.25;4967161;28;20250;-69
2021/08/28 08:20:10;;;;;;;1.30;1.30;;;;;;;22.74;85.72;97401.38;4962132;28;20713;-68
2021/08/28 08:22:36;;;;;;;1.87;1.13;;;;;;;22.74;85.84;97406.50;4968097;28;20858;-68
2021/08/28 08:25:03;;;;;;;1.53;1.40;;;;;;;22.74;85.75;97407.34;4965112;28;20231;-66
2021/08/28 08:27:30;;;;;;;1.57;1.10;;;;;;;22.74;85.87;97402.22;4968890;28;20263;-68
2021/08/28 08:29:56;;;;;;;1.10;1.10;;;;;;;22.74;85.77;97399.66;4964536;28;20384;-66
2021/08/28 08:32:23;;;;;;;1.50;1.17;;;;;;;22.75;85.65;97398.00;4965399;28;20239;-69
2021/08/28 08:34:49;;;;;;;1.10;1.10;;;;;;;22.75;85.73;97398.00;4964092;28;20244;-66
2021/08/28 08:37:16;;;;;;;1.30;1.20;;;;;;;22.75;85.65;97392.88;4964753;28;20457;-67
2021/08/28 08:39:42;;;;;;;1.20;1.20;;;;;;;22.74;85.77;97389.41;4968065;28;20314;-68
2021/08/28 08:42:09;;;;;;;1.20;1.20;;;;;;;22.60;85.93;97367.78;4965249;28;20287;-67
2021/08/28 08:44:36;;;;;;;1.10;1.10;;;;;;;22.76;85.35;97394.56;4945928;28;20208;-67
2021/08/28 08:47:03;;;;;;;1.33;1.23;;;;;;;22.75;85.56;97391.19;4946460;28;20287;-68
2021/08/28 08:49:29;;;;;;;1.13;1.13;;;;;;;22.74;85.65;97397.09;4966098;28;20269;-66
2021/08/28 08:51:56;;;;;;;1.00;1.00;;;;;;;22.53;85.62;97358.19;4965705;28;20231;-69
2021/08/28 08:54:22;;;;;;;1.40;1.30;;;;;;;22.65;85.53;97378.13;4964669;28;20239;-67
2021/08/28 08:56:49;;;;;;;1.40;1.30;;;;;;;22.64;85.79;97378.94;4966746;28;20246;-66
2021/08/28 08:59:16;;;;;;;1.20;1.20;;;;;;;22.69;86.06;97390.16;4963520;28;20255;-69
2021/08/28 09:01:42;;;;;;;1.07;1.07;;;;;;;22.70;85.90;97391.88;4968611;28;20254;-67
2021/08/28 09:04:11;;;;;;;1.03;1.03;;;;;;;22.70;85.92;97394.44;4961590;28;20228;-66
2021/08/28 09:06:38;;;;;;;1.10;1.10;;;;;;;22.70;86.10;97392.75;4966157;28;20592;-67
2021/08/28 09:09:05;;;;;;;1.17;1.17;;;;;;;22.71;86.01;97401.31;4968272;28;20325;-68
2021/08/28 09:11:32;;;;;;;1.10;1.10;;;;;;;22.70;85.84;97395.31;4965380;28;20682;-67
2021/08/28 09:14:18;;;;;;;1.00;1.00;;;;;;;22.72;85.92;97397.91;4967089;28;20720;-67
2021/08/28 09:16:46;;;;;;;1.20;1.20;;;;;;;22.72;85.98;97392.78;4969244;28;20275;-66
2021/08/28 09:19:16;;;;;;;1.10;1.00;;;;;;;22.72;85.73;97396.22;4968074;28;20603;-67
2021/08/28 09:21:43;;;;;;;1.20;1.10;;;;;;;22.73;86.30;97394.50;4970622;28;20641;-66
2021/08/28 09:24:13;;;;;;;5.93;1.27;;;;;;;22.73;85.84;97397.94;4968868;28;20204;-67
2021/08/28 09:26:41;;;;;;;3.33;1.27;;;;;;;22.74;85.85;97399.66;4970855;28;20212;-67
2021/08/28 09:29:11;;;;;;;1.10;1.10;;;;;;;22.73;85.89;97405.63;4956029;28;20649;-67
2021/08/28 09:31:44;;;;;;;1.23;1.17;;;;;;;22.75;85.80;97395.41;4965626;28;20246;-67
2021/08/28 09:34:25;;;;;;;1.30;1.20;;;;;;;22.75;85.85;97408.22;4957963;28;20238;-67
2021/08/28 09:37:02;;;;;;;1.10;1.10;;;;;;;22.74;85.74;97402.22;4965638;28;20446;-66
2021/08/28 09:39:45;;;;;;;1.13;1.13;;;;;;;22.74;85.83;97404.78;4969590;28;20262;-67
2021/08/28 09:42:20;;;;;;;1.10;1.10;;;;;;;22.75;85.73;97398.00;4965438;28;20693;-67
2021/08/28 09:44:47;;;;;;;1.00;1.00;;;;;;;22.75;85.84;97401.44;4971563;28;20661;-67
2021/08/28 09:47:21;;;;;;;1.10;1.10;;;;;;;22.75;85.84;97400.53;4964288;28;20275;-67
2021/08/28 09:49:48;;;;;;;1.17;1.17;;;;;;;22.70;85.53;97394.44;4969540;28;20297;-66
2021/08/28 09:52:25;;;;;;;1.20;1.20;;;;;;;22.76;85.67;97402.28;4965256;28;20243;-67
2021/08/28 09:54:54;;;;;;;1.00;1.00;;;;;;;22.76;85.79;97397.16;4972420;28;20238;-66
2021/08/28 09:57:27;;;;;;;1.10;1.10;;;;;;;22.76;85.80;97392.91;4965663;28;20885;-66
2021/08/28 09:59:57;;;;;;;1.30;1.20;;;;;;;22.76;85.74;97398.03;4971891;28;20270;-67
2021/08/28 10:02:23;;;;;;;1.20;1.20;;;;;;;22.74;85.66;97404.78;4968143;28;20237;-69
2021/08/28 10:04:52;;;;;;;1.00;1.00;;;;;;;22.74;85.72;97398.81;4965569;28;20236;-67
2021/08/28 10:07:23;;;;;;;1.40;1.30;;;;;;;22.72;85.75;97397.91;4970257;28;20298;-67
2021/08/28 10:09:56;;;;;;;1.30;1.20;;;;;;;22.70;85.86;97392.75;4964572;28;20197;-67
2021/08/28 10:12:28;;;;;;;1.00;1.00;;;;;;;22.69;85.96;97387.59;4968098;28;20648;-69
2021/08/28 10:14:55;;;;;;;1.10;1.10;;;;;;;22.69;85.99;97391.03;4947646;28;20230;-67
2021/08/28 10:17:23;;;;;;;1.13;1.13;;;;;;;22.69;86.11;97392.72;4968864;28;20247;-66
2021/08/28 10:19:51;;;;;;;1.00;1.00;;;;;;;22.70;86.05;97392.75;4966097;28;20282;-67
2021/08/28 10:22:27;;;;;;;1.23;1.13;;;;;;;22.71;86.05;97398.75;4970195;28;20234;-67
2021/08/28 10:24:55;;;;;;;2.00;1.10;;;;;;;22.72;86.02;97400.47;4965306;28;20235;-68
2021/08/28 10:27:22;;;;;;;1.10;1.10;;;;;;;22.72;86.07;97395.34;4970524;28;20251;-67
2021/08/28 10:29:48;;;;;;;1.23;1.13;;;;;;;22.72;85.96;97392.78;4967353;28;20290;-68
2021/08/28 10:32:15;;;;;;;2.13;1.03;;;;;;;22.73;85.96;97389.38;4966046;28;20231;-66
2021/08/28 10:34:41;;;;;;;1.03;1.03;;;;;;;22.73;85.91;97389.38;4966150;28;20224;-67
2021/08/28 10:37:08;;;;;;;1.10;1.10;;;;;;;22.57;85.81;97357.47;4963944;28;20235;-68
2021/08/28 10:39:35;;;;;;;1.10;1.00;;;;;;;22.73;85.96;97387.69;4968629;28;20315;-65
2021/08/28 10:42:02;;;;;;;1.10;1.10;;;;;;;22.67;85.98;97374.75;4965416;28;20706;-66
2021/08/28 10:44:29;;;;;;;1.20;1.20;;;;;;;22.74;86.06;97379.19;4969409;28;20616;-66
2021/08/28 10:46:55;;;;;;;1.00;1.00;;;;;;;22.74;85.86;97380.91;4966018;28;20689;-68
2021/08/28 10:49:22;;;;;;;1.10;1.00;;;;;;;22.74;85.81;97384.31;4966341;28;20293;-67
2021/08/28 10:51:54;;;;;;;1.03;1.03;;;;;;;22.75;85.87;97377.50;4967131;28;20231;-67
2021/08/28 10:54:29;;;;;;;1.20;1.10;;;;;;;22.69;85.62;97365.41;4962560;28;20206;-69
2021/08/28 10:57:01;;;;;;;1.10;1.10;;;;;;;22.76;85.84;97379.22;4967948;28;20474;-68
2021/08/28 10:59:32;;;;;;;1.10;1.10;;;;;;;22.75;85.87;97382.63;4967440;28;20219;-65
2021/08/28 11:02:14;;;;;;;1.10;1.10;;;;;;;22.75;85.87;97386.06;4967799;28;20246;-67
2021/08/28 11:04:45;;;;;;;1.00;1.00;;;;;;;22.75;85.82;97382.63;4961395;28;20274;-66
2021/08/28 11:07:19;;;;;;;1.30;1.20;;;;;;;22.75;85.72;97382.63;4963592;28;20282;-67
2021/08/28 11:10:04;;;;;;;1.00;1.00;;;;;;;22.75;85.69;97390.28;4964503;28;20197;-66
2021/08/28 11:12:56;;;;;;;1.00;1.00;;;;;;;22.74;85.82;97394.53;4966538;28;20257;-67
2021/08/28 11:15:35;;;;;;;1.00;1.00;;;;;;;22.73;85.81;97392.81;4961877;28;20207;-68
2021/08/28 11:18:13;;;;;;;1.00;1.00;;;;;;;22.71;85.74;97397.03;4964710;28;20227;-68
2021/08/28 11:20:40;;;;;;;1.20;1.10;;;;;;;22.69;85.96;97390.16;4968850;28;20667;-67
2021/08/28 11:23:15;;;;;;;1.20;1.20;;;;;;;22.67;86.04;97389.25;4962985;28;20299;-66
2021/08/28 11:25:48;;;;;;;1.43;1.30;;;;;;;22.67;86.15;97387.56;4967904;28;20231;-67
2021/08/28 11:28:15;;;;;;;1.10;1.00;;;;;;;22.68;86.16;97394.41;4959847;28;20310;-67
2021/08/28 11:30:44;;;;;;;1.20;1.10;;;;;;;22.69;86.22;97388.47;4962158;28;20296;-66
2021/08/28 11:33:23;;;;;;;1.10;1.10;;;;;;;22.68;86.14;97394.41;4959069;28;20208;-68
2021/08/28 11:35:59;;;;;;;1.00;1.00;;;;;;;22.70;86.09;97395.31;4962113;28;20294;-67
2021/08/28 11:38:56;;;;;;;1.07;1.07;;;;;;;22.71;86.07;97388.50;4969314;28;20262;-68